< Typhoon 196411 1964 Season Typhoon 196413 >
Typhoon 196412 (IDA)
General InformationTrack Information on Google Maps || Disaster Info.ResourceGoogle EarthGE AnimationAtom FeedGeoJSON
Detalied Best Track (Time Zone = UTC)
Year Month Day Hour Lat. Long. Pressure (hPa) Wind (kt) Class Image Chart
1964 8 2 00 7.0 149.0 1004 0 2 -- Chart
1964 8 2 06 7.4 147.9 1002 0 2 -- Chart
1964 8 2 12 8.0 146.9 1002 0 2 -- Chart
1964 8 2 18 8.6 145.7 1000 0 2 -- Chart
1964 8 3 00 9.1 144.6 1000 0 2 -- Chart
1964 8 3 06 9.8 143.3 1000 0 2 -- Chart
1964 8 3 12 10.4 141.9 1000 0 2 -- Chart
1964 8 3 18 10.8 140.5 998 0 9 -- Chart
1964 8 4 00 11.7 138.7 998 0 9 -- Chart
1964 8 4 06 12.6 137.1 990 0 9 -- Chart
1964 8 4 12 13.3 135.4 985 0 9 -- Chart
1964 8 4 18 14.1 133.7 980 0 9 -- Chart
1964 8 5 00 14.7 132.1 975 0 9 -- Chart
1964 8 5 06 15.3 130.4 970 0 9 -- Chart
1964 8 5 12 15.7 128.9 970 0 9 -- Chart
1964 8 5 18 15.9 127.5 960 0 9 -- Chart
1964 8 6 00 16.3 126.5 940 0 9 -- Chart
1964 8 6 06 16.6 125.2 925 0 9 -- Chart
1964 8 6 12 17.0 123.7 935 0 9 -- Chart
1964 8 6 18 17.5 122.5 945 0 9 -- Chart
1964 8 7 00 17.8 121.0 955 0 9 -- Chart
1964 8 7 06 18.3 119.7 960 0 9 -- Chart
1964 8 7 12 18.8 118.7 965 0 9 -- Chart
1964 8 7 18 19.3 117.9 970 0 9 -- Chart
1964 8 8 00 19.7 116.7 970 0 9 -- Chart
1964 8 8 06 20.3 115.6 975 0 9 -- Chart
1964 8 8 12 20.9 114.6 975 0 9 -- Chart
1964 8 8 18 21.8 113.5 980 0 9 -- Chart
1964 8 9 00 23.0 112.3 980 0 9 -- Chart
1964 8 9 06 23.8 110.4 990 0 2 -- Chart
1964 8 9 12 24.2 109.0 992 0 2 -- Chart
1964 8 9 18 24.8 108.2 994 0 2 -- Chart
1964 8 10 00 25.1 106.9 994 0 2 -- Chart
1964 8 10 06 25.2 106.2 992 0 2 -- Chart
1964 8 10 12 25.3 105.7 992 0 2 -- Chart
1964 8 10 18 25.4 105.4 992 0 2 -- Chart
1964 8 11 00 25.5 105.0 994 0 2 -- Chart
1964 8 11 06 26.2 104.5 996 0 2 -- Chart
1964 8 11 12 27.0 104.2 996 0 2 -- Chart
1964 8 11 18 28.0 104.5 996 0 2 -- Chart
1964 8 12 00 29.0 105.0 998 0 2 -- Chart
Japan Meteorological Agency Best Track Data | Correction Date : 1989-06-01
< Typhoon 196411 1964 Season Typhoon 196413 >

Help